Latest Weather Observations for Robe Airport

IDS60801

Issued at 7:05 pm CDT Saturday 22 November 2014 (issued every 30 minutes, with the page automatically refreshed every 10 minutes)

About weather observations | Map of weather stations | Latest weather observations for SA | Other Formats
Station Details ID: 026105 Name: ROBE AIRFIELD Lat: -37.18 Lon: 139.81 Height: 3.0 m
Data from the previous 72 hours. | See also: Recent months at Robe Airport
Date/Time
CDT
Temp
°C
App
Temp
°C
Dew
Point
Rel
Hum
%
Delta-T
°C
Wind Press
QNH
hPa
Press
MSL
hPa
Rain
since 9 am
mm
Dir
 
Spd
km/h
Gust
km/h
Spd
kts
Gust
kts
22/07:00pm 18.5 17.2 13.8 74 2.7 SW 13 22 7 12 1008.4 1008.4 0.0
22/06:30pm 18.6 16.2 13.9 74 2.7 SW 19 26 10 14 1008.0 1008.0 0.0
22/06:00pm 19.0 16.8 14.5 75 2.6 SW 19 30 10 16 1007.8 1007.8 0.0
22/05:30pm 19.2 16.2 14.7 75 2.6 SW 24 33 13 18 1007.5 1007.5 0.0
22/05:00pm 19.8 16.8 14.8 73 2.9 SW 24 35 13 19 1007.1 1007.1 0.0
22/04:30pm 20.2 17.4 14.3 69 3.4 WSW 22 32 12 17 1006.8 1006.8 0.0
22/04:00pm 21.7 19.2 15.1 66 3.9 W 22 32 12 17 1006.7 1006.7 0.0
22/03:30pm 22.4 18.3 15.0 63 4.4 NW 30 41 16 22 1006.8 1006.8 0.0
22/03:00pm 23.5 20.8 15.5 60 4.8 NNW 24 32 13 17 1006.4 1006.4 0.0
22/02:30pm 22.9 18.6 15.5 63 4.4 NW 32 39 17 21 1006.2 1006.2 0.0
22/02:00pm 23.1 19.7 15.7 63 4.5 NW 28 37 15 20 1006.1 1006.1 0.0
22/01:30pm 22.9 18.8 15.0 61 4.7 NW 30 39 16 21 1006.1 1006.1 0.0
22/01:00pm 23.1 18.0 14.7 59 5.0 NNW 35 46 19 25 1006.1 1006.1 0.0
22/12:30pm 24.2 19.2 14.0 53 6.0 NNW 33 46 18 25 1006.3 1006.3 0.0
22/12:00pm 24.9 18.7 12.8 47 7.0 NNW 37 52 20 28 1006.3 1006.3 0.0
22/11:30am 25.7 19.6 12.9 45 7.5 NNW 37 56 20 30 1006.4 1006.4 0.0
22/11:00am 24.8 16.9 10.7 41 7.9 N 43 54 23 29 1006.2 1006.2 0.0
22/10:30am 25.4 17.6 9.7 37 8.7 N 41 57 22 31 1005.9 1005.9 0.0
22/10:08am 25.2 18.0 9.1 36 8.7 N 37 57 20 31 1006.0 1006.0 0.0
22/10:00am 24.7 17.6 9.4 38 8.3 N 37 48 20 26 1006.0 1006.0 0.0
22/09:37am 23.3 17.5 9.3 41 7.6 N 30 50 16 27 1006.2 1006.2 0.0
22/09:30am 22.6 17.1 9.0 42 7.3 N 28 44 15 24 1006.3 1006.3 0.0
22/09:00am 20.1 15.1 9.7 51 5.6 NNE 26 33 14 18 1006.5 1006.5 0.8
22/08:30am 17.0 13.6 9.2 60 4.1 NNE 17 22 9 12 1006.8 1006.8 0.8
22/08:00am 15.3 12.1 8.5 64 3.4 NNE 15 22 8 12 1006.8 1006.8 0.8
22/07:30am 14.3 10.8 8.9 70 2.7 NE 17 26 9 14 1007.2 1007.2 0.8
22/07:00am 13.4 9.7 9.6 78 1.9 NE 19 22 10 12 1007.5 1007.5 0.8
22/06:38am 13.8 12.3 8.6 71 2.6 ENE 6 11 3 6 1009.0 1009.0 0.6
22/06:30am 13.8 11.4 8.8 72 2.5 ENE 11 17 6 9 1007.0 1007.0 0.6
22/06:00am 13.5 11.2 9.0 74 2.3 E 11 17 6 9 1006.6 1006.6 0.6
22/05:30am 13.4 10.4 9.3 76 2.1 ENE 15 22 8 12 1006.6 1006.6 0.6
22/05:00am 13.2 10.9 10.4 83 1.5 ESE 13 17 7 9 1007.2 1007.2 0.6
22/04:30am 13.6 12.4 11.7 88 1.0 SSE 9 13 5 7 1008.2 1008.2 0.6
22/04:00am 13.4 12.6 11.1 86 1.2 ESE 6 7 3 4 1008.6 1008.6 0.6
22/03:30am 13.4 12.5 10.6 83 1.5 ESE 6 7 3 4 1008.6 1008.6 0.6
22/03:00am 14.1 12.8 11.4 84 1.4 SE 9 11 5 6 1008.0 1008.0 0.6
22/02:30am 13.9 12.0 10.5 80 1.8 SSE 11 17 6 9 1008.1 1008.1 0.6
22/02:00am 14.6 12.8 9.4 71 2.7 SSW 9 20 5 11 1009.6 1009.6 0.4
22/01:42am 14.6 8.5 6.7 59 3.8 SW 28 50 15 27 1009.9 1009.9 0.0
22/01:41am 14.3 9.3 6.6 60 3.7 SW 22 33 12 18 1009.6 1009.6 0.0
22/01:30am 14.3 11.4 6.6 60 3.7 NE 11 17 6 9 1007.5 1007.5 0.0
22/01:00am 13.8 10.2 6.7 62 3.4 NNE 15 22 8 12 1007.9 1007.9 0.0
22/12:30am 13.9 9.7 7.4 65 3.2 NE 19 26 10 14 1007.8 1007.8 0.0
22/12:00am 14.0 10.9 8.8 71 2.6 NE 15 19 8 10 1009.0 1009.0 0.0
 
Date/Time
CDT
Temp
°C
App
Temp
°C
Dew
Point
Rel
Hum
%
Delta-T
°C
Wind Press
QNH
hPa
Press
MSL
hPa
Rain
since 9 am
mm
Dir
 
Spd
km/h
Gust
km/h
Spd
kts
Gust
kts
21/11:30pm 12.6 10.7 8.9 78 1.9 NNE 9 13 5 7 1009.7 1009.7 0.0
21/11:00pm 13.0 11.3 10.0 82 1.5 NE 9 13 5 7 1010.4 1010.4 0.0
21/10:30pm 13.1 11.6 10.6 85 1.3 NE 9 13 5 7 1010.8 1010.8 0.0
21/10:00pm 13.0 12.5 10.9 87 1.1 N 4 9 2 5 1011.3 1011.3 0.0
21/09:30pm 13.6 14.0 11.3 86 1.2 CALM 0 0 0 0 1011.2 1011.2 0.0
21/09:00pm 14.3 14.9 11.8 85 1.3 CALM 0 0 0 0 1011.2 1011.2 0.0
21/08:30pm 15.0 15.4 11.4 79 1.9 CALM 0 2 0 1 1011.2 1011.2 0.0
21/08:00pm 15.7 15.0 11.5 76 2.3 NNW 6 7 3 4 1011.2 1011.2 0.0
21/07:30pm 16.3 15.5 11.7 74 2.5 NNW 7 9 4 5 1011.2 1011.2 0.0
21/07:00pm 17.0 16.3 11.5 70 3.0 NW 6 9 3 5 1011.0 1011.0 0.0
21/06:30pm 17.4 16.5 11.4 68 3.3 NNW 7 13 4 7 1011.0 1011.0 0.0
21/06:00pm 18.2 15.9 11.7 66 3.6 NW 15 19 8 10 1011.1 1011.1 0.0
21/05:30pm 18.5 16.6 11.8 65 3.7 NW 13 20 7 11 1011.0 1011.0 0.0
21/05:00pm 18.2 15.2 12.0 67 3.4 NW 19 28 10 15 1011.2 1011.2 0.0
21/04:30pm 18.5 15.3 12.0 66 3.6 WNW 20 26 11 14 1011.4 1011.4 0.0
21/04:00pm 18.8 14.7 11.6 63 4.0 NW 24 33 13 18 1011.6 1011.6 0.0
21/03:30pm 18.7 14.2 11.3 62 4.0 NW 26 35 14 19 1011.7 1011.7 0.0
21/03:00pm 18.8 15.0 11.1 61 4.2 NW 22 30 12 16 1011.8 1011.8 0.0
21/02:30pm 18.9 15.1 11.0 60 4.3 NW 22 33 12 18 1012.1 1012.1 0.0
21/02:00pm 18.7 14.5 11.0 61 4.2 NW 24 33 13 18 1012.3 1012.3 0.0
21/01:30pm 19.2 15.6 11.7 62 4.1 NW 22 32 12 17 1012.5 1012.5 0.0
21/01:00pm 18.5 14.8 11.6 64 3.8 NW 22 28 12 15 1012.4 1012.4 0.0
21/12:30pm 19.1 15.7 12.4 65 3.7 NW 22 30 12 16 1012.7 1012.7 0.0
21/12:00pm 19.2 16.7 12.2 64 3.9 NW 17 26 9 14 1012.8 1012.8 0.0
21/11:30am 18.5 15.5 12.0 66 3.6 NW 19 26 10 14 1012.7 1012.7 0.0
21/11:00am 17.7 14.8 11.0 65 3.6 WNW 17 24 9 13 1012.7 1012.7 0.0
21/10:30am 18.6 16.9 12.4 67 3.5 WNW 13 20 7 11 1012.6 1012.6 0.0
21/10:00am 17.7 14.9 11.5 67 3.4 NW 17 22 9 12 1012.4 1012.4 0.0
21/09:30am 16.6 14.4 10.7 68 3.1 NW 13 20 7 11 1012.6 1012.6 0.0
21/09:00am 16.9 15.0 10.5 66 3.4 NW 11 15 6 8 1012.5 1012.5 9.4
21/08:30am 16.2 14.7 10.5 69 3.0 W 9 15 5 8 1012.5 1012.5 9.4
21/08:00am 16.1 14.9 10.4 69 3.0 W 7 13 4 7 1012.3 1012.3 9.4
21/07:30am 14.3 14.2 10.7 79 1.9 N 2 4 1 2 1011.9 1011.9 9.4
21/07:00am 12.7 13.1 11.4 92 0.7 CALM 0 0 0 0 1011.6 1011.6 9.4
21/06:30am 11.2 11.1 9.5 89 0.9 CALM 0 0 0 0 1011.3 1011.3 9.4
21/06:00am 11.4 11.3 9.3 87 1.1 CALM 0 0 0 0 1010.9 1010.9 9.4
21/05:30am 12.2 11.7 9.2 82 1.5 W 2 2 1 1 1010.5 1010.5 9.4
21/05:00am 12.9 11.5 9.0 77 2.0 WSW 6 7 3 4 1010.9 1010.9 9.4
21/04:30am 12.7 11.4 9.2 79 1.8 WSW 6 9 3 5 1010.9 1010.9 9.4
21/04:00am 12.0 10.5 8.5 79 1.7 WSW 6 9 3 5 1010.6 1010.6 9.4
21/03:30am 11.8 10.2 8.6 81 1.6 WSW 7 11 4 6 1010.2 1010.2 9.4
21/03:00am 12.4 11.1 9.2 81 1.6 WSW 6 11 3 6 1009.8 1009.8 9.4
21/02:30am 13.4 11.4 10.0 80 1.8 SW 11 17 6 9 1009.8 1009.8 9.4
21/02:00am 13.8 12.3 10.4 80 1.8 SW 9 15 5 8 1010.3 1010.3 9.4
21/01:30am 13.4 11.4 10.2 81 1.7 SW 11 19 6 10 1010.4 1010.4 9.4
21/01:00am 13.6 11.3 10.4 81 1.7 SW 13 19 7 10 1010.5 1010.5 9.4
21/12:30am 14.2 11.2 10.6 79 1.9 SW 17 24 9 13 1010.4 1010.4 9.4
21/12:00am 14.1 12.5 11.6 85 1.3 SW 11 15 6 8 1010.4 1010.4 9.4
 
Date/Time
CDT
Temp
°C
App
Temp
°C
Dew
Point
Rel
Hum
%
Delta-T
°C
Wind Press
QNH
hPa
Press
MSL
hPa
Rain
since 9 am
mm
Dir
 
Spd
km/h
Gust
km/h
Spd
kts
Gust
kts
20/11:30pm 14.1 11.7 11.4 84 1.4 SW 15 22 8 12 1010.2 1010.2 9.4
20/11:00pm 14.6 11.6 12.1 85 1.4 SW 19 28 10 15 1010.3 1010.3 9.4
20/10:30pm 14.5 11.5 12.7 89 1.0 SW 20 32 11 17 1010.1 1010.1 9.4
20/10:00pm 14.1 11.0 13.3 95 0.4 SW 22 33 12 18 1009.7 1009.7 9.4
20/09:30pm 14.5 11.4 13.5 94 0.6 SW 22 33 12 18 1009.3 1009.3 9.4
20/09:00pm 15.4 13.9 14.1 92 0.7 WSW 15 26 8 14 1008.4 1008.4 9.4
20/08:30pm 15.8 14.2 14.0 89 1.0 WSW 15 22 8 12 1007.9 1007.9 9.4
20/08:00pm 15.8 13.8 13.8 88 1.1 WSW 17 28 9 15 1007.5 1007.5 9.4
20/07:30pm 15.8 13.5 14.0 89 1.0 WSW 19 32 10 17 1007.0 1007.0 9.4
20/07:00pm 16.1 14.1 13.9 87 1.2 WSW 17 26 9 14 1006.6 1006.6 9.4
20/06:30pm 17.0 15.6 14.5 85 1.4 WSW 15 26 8 14 1006.2 1006.2 9.4
20/06:00pm 17.6 15.6 15.0 85 1.5 WSW 19 30 10 16 1005.7 1005.7 9.4
20/05:30pm 17.8 15.4 15.4 86 1.4 W 22 33 12 18 1005.3 1005.3 9.4
20/05:00pm 18.0 15.9 16.2 89 1.1 W 22 35 12 19 1005.4 1005.4 9.4
20/04:30pm 18.2 16.0 16.9 92 0.8 NW 24 33 13 18 1004.9 1004.9 9.4
20/04:00pm 17.7 16.5 17.1 96 0.4 NW 19 26 10 14 1005.0 1005.0 9.4
20/03:30pm 17.8 15.8 17.3 97 0.3 NW 24 35 13 19 1005.2 1005.2 9.4
20/03:00pm 18.1 16.8 17.3 95 0.5 WNW 20 28 11 15 1005.3 1005.3 9.2
20/02:30pm 19.1 17.5 18.3 95 0.5 NNW 24 33 13 18 1005.3 1005.3 9.2
20/02:00pm 18.4 16.6 17.8 96 0.4 NNW 24 32 13 17 1005.4 1005.4 9.2
20/01:30pm 18.1 15.0 17.6 97 0.3 NNW 30 39 16 21 1005.7 1005.7 9.0
20/01:00pm 17.8 14.6 17.3 97 0.3 NNW 30 41 16 22 1005.9 1005.9 8.0
20/12:30pm 18.1 15.2 17.1 94 0.6 NW 28 37 15 20 1006.7 1006.7 3.0
20/12:00pm 18.4 15.1 16.9 91 0.9 NNW 30 39 16 21 1006.4 1006.4 1.2
20/11:30am 19.9 16.5 16.7 82 1.9 NNW 30 41 16 22 1006.2 1006.2 0.6
20/11:00am 19.7 16.9 16.3 81 2.0 N 26 37 14 20 1005.9 1005.9 0.6
20/10:30am 18.6 15.7 16.2 86 1.4 NNW 26 39 14 21 1006.2 1006.2 0.6
20/10:00am 18.7 14.9 15.8 83 1.7 N 30 39 16 21 1006.2 1006.2 0.2
20/09:30am 19.8 17.6 14.8 73 2.9 NNW 20 32 11 17 1005.8 1005.8 0.0
20/09:00am 19.6 17.3 14.6 73 2.9 NNW 20 28 11 15 1005.3 1005.3 0.0
20/08:30am 20.2 18.3 14.1 68 3.5 NW 17 24 9 13 1004.6 1004.6 0.0
20/08:00am 20.5 18.9 13.9 66 3.8 NW 15 20 8 11 1004.3 1004.3 0.0
20/07:30am 21.0 19.6 14.4 66 3.9 NNW 15 24 8 13 1004.2 1004.2 0.0
20/07:00am 20.2 18.6 13.9 67 3.6 NNW 15 22 8 12 1004.4 1004.4 0.0
20/06:30am 20.0 18.2 13.2 65 3.9 NW 15 22 8 12 1003.9 1003.9 0.0
20/06:00am 20.8 16.9 12.0 57 4.9 NNW 24 32 13 17 1003.9 1003.9 0.0
20/05:30am 22.7 16.5 9.5 43 7.2 NNW 32 43 17 23 1003.4 1003.4 0.0
20/05:16am 24.1 17.2 7.3 34 8.8 NNW 33 48 18 26 1003.3 1003.3 0.0
20/05:00am 23.1 18.2 5.1 31 9.0 N 20 30 11 16 1003.2 1003.2 0.0
20/04:30am 18.7 17.1 6.2 44 6.2 NNE 4 7 2 4 1003.1 1003.1 0.0
20/04:00am 19.5 16.9 6.3 42 6.6 NNE 9 15 5 8 1003.1 1003.1 0.0
20/03:30am 16.9 14.7 6.1 49 5.3 NE 7 9 4 5 1003.5 1003.5 0.0
20/03:00am 17.0 13.9 5.6 47 5.5 NE 11 17 6 9 1003.8 1003.8 0.0
20/02:30am 16.8 13.3 5.4 47 5.5 NE 13 17 7 9 1004.3 1004.3 0.0
20/02:00am 16.8 13.7 5.4 47 5.5 NE 11 13 6 7 1005.1 1005.1 0.0
20/01:30am 18.1 14.7 5.7 44 6.1 NE 13 20 7 11 1005.5 1005.5 0.0
20/01:00am 17.8 14.4 6.0 46 5.8 NE 13 17 7 9 1006.2 1006.2 0.0
20/12:30am 17.3 14.4 6.5 49 5.3 NE 11 15 6 8 1006.8 1006.8 0.0
20/12:00am 17.0 15.1 7.6 54 4.7 NE 7 11 4 6 1006.9 1006.9 0.0
 
Date/Time
CDT
Temp
°C
App
Temp
°C
Dew
Point
Rel
Hum
%
Delta-T
°C
Wind Press
QNH
hPa
Press
MSL
hPa
Rain
since 9 am
mm
Dir
 
Spd
km/h
Gust
km/h
Spd
kts
Gust
kts
19/11:30pm 16.5 14.8 8.5 59 4.1 ENE 7 9 4 5 1007.4 1007.4 0.0
19/11:00pm 17.0 15.5 9.2 60 4.0 ENE 7 9 4 5 1007.8 1007.8 0.0
19/10:30pm 18.1 16.8 10.0 59 4.3 ENE 7 11 4 6 1007.8 1007.8 0.0
19/10:00pm 17.9 16.6 9.3 57 4.5 E 6 9 3 5 1008.1 1008.1 0.0
19/09:30pm 16.5 15.5 10.4 67 3.2 ESE 6 7 3 4 1008.8 1008.8 0.0
19/09:00pm 17.6 17.8 10.7 64 3.7 CALM 0 0 0 0 1009.3 1009.3 0.0
19/08:30pm 18.6 18.7 10.2 58 4.5 CALM 0 0 0 0 1009.3 1009.3 0.0
19/08:00pm 18.7 18.1 10.3 58 4.5 N 4 7 2 4 1009.3 1009.3 0.0
19/07:30pm 19.9 19.3 10.3 54 5.2 WNW 4 4 2 2 1010.1 1010.1 0.0

Other Formats:

Comma delimited format used in spreadsheet applications
http://www.bom.gov.au/fwo/IDS60801/IDS60801.95816.axf

JavaScript Object Notation format (JSON) in row-major order
http://www.bom.gov.au/fwo/IDS60801/IDS60801.95816.json